Time;durP1;ratioP1;P1;durP2;ratioP2;P2;SDS_P1;SDS_P2;PMS_P1;PMS_P2;Temp;Humidity;BMP_temperature;BMP_pressure;BME280_temperature;BME280_humidity;BME280_pressure;Samples;Min_cycle;Max_cycle;Signal;HPM_P1;HPM_P2
2023/03/26 00:02:18;;;;;;;1.80;0.50;;;24.30;99.90;;;;;;5028733;28;20194;-78
2023/03/26 00:04:49;;;;;;;2.05;0.63;;;24.40;99.90;;;;;;5032200;28;20193;-78
2023/03/26 00:07:21;;;;;;;2.83;0.75;;;24.40;99.90;;;;;;5031344;28;20233;-77
2023/03/26 00:09:52;;;;;;;3.05;0.70;;;24.50;99.90;;;;;;5027151;28;20699;-78
2023/03/26 00:12:25;;;;;;;3.17;0.60;;;24.50;99.90;;;;;;5031043;28;20580;-79
2023/03/26 00:14:56;;;;;;;3.88;0.60;;;24.60;99.90;;;;;;5029394;28;20202;-78
2023/03/26 00:17:27;;;;;;;3.13;0.60;;;24.70;99.90;;;;;;5031247;28;20198;-77
2023/03/26 00:19:58;;;;;;;2.35;0.50;;;24.70;99.90;;;;;;5031210;28;20200;-78
2023/03/26 00:22:29;;;;;;;4.47;0.73;;;24.80;99.90;;;;;;5031285;28;20205;-78
2023/03/26 00:25:01;;;;;;;3.60;0.68;;;24.90;99.90;;;;;;5022009;28;20593;-77
2023/03/26 00:27:34;;;;;;;2.60;0.60;;;24.90;99.90;;;;;;5029766;28;20205;-78
2023/03/26 00:30:06;;;;;;;2.05;0.60;;;24.80;99.90;;;;;;5029080;28;20249;-77
2023/03/26 00:32:37;;;;;;;3.03;0.70;;;24.90;99.90;;;;;;5027942;28;20194;-78
2023/03/26 00:35:09;;;;;;;3.40;0.70;;;24.90;99.90;;;;;;5032077;28;20205;-79
2023/03/26 00:37:42;;;;;;;5.38;0.60;;;24.90;99.90;;;;;;5027594;28;20205;-77
2023/03/26 00:40:14;;;;;;;2.15;0.57;;;24.90;99.90;;;;;;5022718;28;20197;-77
2023/03/26 00:42:47;;;;;;;2.42;0.57;;;25.00;99.90;;;;;;5027145;28;20209;-78
2023/03/26 00:45:20;;;;;;;3.50;0.65;;;25.10;99.90;;;;;;5029596;28;20600;-77
2023/03/26 00:47:51;;;;;;;2.58;0.68;;;25.20;99.90;;;;;;5027889;28;20189;-78
2023/03/26 00:50:22;;;;;;;2.30;0.60;;;25.20;99.90;;;;;;5027702;28;20193;-77
2023/03/26 00:52:54;;;;;;;1.98;0.60;;;25.30;99.90;;;;;;5028288;28;20652;-78
2023/03/26 00:55:25;;;;;;;3.22;0.63;;;25.20;99.90;;;;;;5033028;28;20201;-78
2023/03/26 00:57:58;;;;;;;2.85;0.57;;;25.20;99.90;;;;;;5023300;28;20205;-78
2023/03/26 01:00:33;;;;;;;3.28;0.70;;;25.30;99.90;;;;;;5030089;28;20201;-77
2023/03/26 01:03:05;;;;;;;3.00;0.50;;;25.40;99.90;;;;;;5029852;28;20205;-78
2023/03/26 01:05:51;;;;;;;4.18;0.80;;;25.40;99.90;;;;;;5027452;28;20214;-78
2023/03/26 01:08:32;;;;;;;2.20;0.60;;;25.40;99.90;;;;;;5026977;28;20769;-78
2023/03/26 01:11:12;;;;;;;3.45;0.73;;;25.50;99.90;;;;;;5023944;28;20198;-78
2023/03/26 01:13:49;;;;;;;3.75;0.80;;;25.60;99.90;;;;;;5025197;28;20233;-77
2023/03/26 01:16:25;;;;;;;2.60;0.90;;;25.70;99.90;;;;;;5026641;28;20197;-78
2023/03/26 01:18:57;;;;;;;5.35;1.05;;;25.80;99.90;;;;;;5024286;28;20200;-76
2023/03/26 01:21:33;;;;;;;3.13;0.77;;;25.90;99.90;;;;;;5026044;28;20284;-78
2023/03/26 01:24:07;;;;;;;6.47;1.00;;;26.00;99.90;;;;;;5026067;28;20197;-77
2023/03/26 01:27:06;;;;;;;3.97;0.77;;;26.10;99.90;;;;;;5026598;28;20232;-78
2023/03/26 01:29:48;;;;;;;1.90;0.60;;;26.20;99.90;;;;;;5029664;28;20264;-78
2023/03/26 01:32:38;;;;;;;4.78;0.82;;;26.30;99.90;;;;;;5030461;28;20201;-79
2023/03/26 01:35:21;;;;;;;3.10;0.82;;;26.50;99.90;;;;;;5031944;28;20208;-79
2023/03/26 01:38:09;;;;;;;2.65;0.70;;;26.50;99.90;;;;;;5026678;28;20545;-78
2023/03/26 01:40:48;;;;;;;3.90;0.85;;;26.40;99.90;;;;;;5016276;28;20657;-78
2023/03/26 01:43:30;;;;;;;3.72;0.80;;;26.40;99.90;;;;;;5023206;28;20198;-79
2023/03/26 01:46:03;;;;;;;2.25;0.63;;;26.30;99.90;;;;;;5025002;28;20225;-78
2023/03/26 01:48:38;;;;;;;2.20;0.60;;;26.20;99.90;;;;;;5030220;28;20806;-78
2023/03/26 01:51:12;;;;;;;2.30;0.60;;;26.20;99.90;;;;;;5032446;28;20227;-78
2023/03/26 01:53:45;;;;;;;4.03;0.68;;;26.20;99.90;;;;;;5027695;28;20210;-77
2023/03/26 01:56:24;;;;;;;2.38;0.80;;;26.10;99.90;;;;;;5022490;28;20193;-78
2023/03/26 01:59:10;;;;;;;3.58;0.73;;;26.20;99.90;;;;;;5039182;28;20239;-77
2023/03/26 02:01:46;;;;;;;3.08;1.05;;;26.30;99.90;;;;;;5023593;28;20653;-78
2023/03/26 02:04:25;;;;;;;5.85;1.30;;;26.30;99.90;;;;;;5031446;28;20200;-78
2023/03/26 02:07:00;;;;;;;2.10;0.90;;;26.30;99.90;;;;;;5040243;28;20232;-77
2023/03/26 02:09:37;;;;;;;6.13;0.60;;;26.30;99.90;;;;;;5019181;28;20204;-79
2023/03/26 02:12:12;;;;;;;3.15;0.70;;;26.40;99.90;;;;;;5026089;28;20203;-78
2023/03/26 02:14:43;;;;;;;2.65;0.60;;;26.40;99.90;;;;;;5032696;28;20203;-78
2023/03/26 02:17:15;;;;;;;1.90;0.57;;;26.50;99.90;;;;;;5029325;28;20682;-78
2023/03/26 02:19:46;;;;;;;2.88;0.63;;;26.50;99.90;;;;;;5029105;28;20229;-78
2023/03/26 02:22:21;;;;;;;3.50;0.80;;;26.40;99.90;;;;;;5029594;28;20208;-79
2023/03/26 02:24:52;;;;;;;2.88;0.57;;;26.30;99.90;;;;;;5029263;28;20188;-77
2023/03/26 02:27:25;;;;;;;2.83;0.77;;;26.30;99.90;;;;;;5030124;28;20229;-78
2023/03/26 02:29:57;;;;;;;2.58;0.65;;;26.30;99.90;;;;;;5029122;28;20217;-78
2023/03/26 02:32:28;;;;;;;2.05;0.57;;;26.20;99.90;;;;;;5029339;28;21137;-78
2023/03/26 02:34:59;;;;;;;3.70;0.73;;;26.20;99.90;;;;;;5029193;28;20283;-78
2023/03/26 02:37:32;;;;;;;2.95;0.70;;;26.30;99.90;;;;;;5029320;28;20205;-77
2023/03/26 02:40:05;;;;;;;2.03;0.60;;;26.20;99.90;;;;;;5029902;28;20201;-77
2023/03/26 02:42:38;;;;;;;3.92;0.80;;;26.20;99.90;;;;;;5030115;28;20205;-79
2023/03/26 02:45:10;;;;;;;4.07;0.80;;;26.20;99.90;;;;;;5029680;28;20566;-78
2023/03/26 02:47:42;;;;;;;3.33;0.80;;;26.30;99.90;;;;;;5030012;28;20237;-77
2023/03/26 02:50:13;;;;;;;5.00;0.63;;;26.20;99.90;;;;;;5028162;28;20580;-78
2023/03/26 02:52:47;;;;;;;3.60;0.70;;;26.20;99.90;;;;;;5018429;28;20579;-77
2023/03/26 02:55:19;;;;;;;4.20;1.10;;;26.20;99.90;;;;;;5005662;28;20211;-77
2023/03/26 02:57:52;;;;;;;5.88;0.80;;;26.10;99.90;;;;;;5017319;28;20197;-78
2023/03/26 03:00:24;;;;;;;4.30;0.70;;;26.20;99.90;;;;;;5008815;28;20209;-78
2023/03/26 03:02:56;;;;;;;2.38;0.80;;;26.10;99.90;;;;;;5007551;28;20202;-77
2023/03/26 03:05:30;;;;;;;3.00;0.70;;;26.10;99.90;;;;;;5009060;28;20259;-78
2023/03/26 03:08:02;;;;;;;5.78;0.95;;;26.10;99.90;;;;;;5006752;28;20238;-78
2023/03/26 03:10:33;;;;;;;3.58;0.60;;;26.00;99.90;;;;;;5007865;28;20197;-78
2023/03/26 03:13:06;;;;;;;6.63;1.00;;;25.90;99.90;;;;;;5007489;28;20287;-78
2023/03/26 03:15:38;;;;;;;4.68;0.82;;;26.00;99.90;;;;;;5006255;28;20874;-79
2023/03/26 03:18:09;;;;;;;3.63;0.70;;;25.80;99.90;;;;;;5009327;28;20205;-79
2023/03/26 03:20:43;;;;;;;4.43;1.08;;;25.90;99.90;;;;;;5014782;28;20295;-79
2023/03/26 03:23:14;;;;;;;3.35;0.77;;;25.90;99.90;;;;;;5008124;28;20194;-78
2023/03/26 03:25:45;;;;;;;2.10;0.60;;;25.80;99.90;;;;;;5004983;28;20699;-79
2023/03/26 03:28:18;;;;;;;2.78;0.70;;;25.80;99.90;;;;;;5008008;28;20205;-78
2023/03/26 03:30:51;;;;;;;3.33;0.80;;;25.70;99.90;;;;;;5007728;28;20201;-79
2023/03/26 03:33:23;;;;;;;4.55;0.80;;;25.70;99.90;;;;;;5010533;28;20205;-79
2023/03/26 03:35:54;;;;;;;6.40;1.00;;;25.70;99.90;;;;;;5007995;28;20217;-78
2023/03/26 03:38:25;;;;;;;3.80;0.80;;;25.70;99.90;;;;;;5006447;28;20205;-79
2023/03/26 03:40:57;;;;;;;6.07;0.90;;;25.80;99.90;;;;;;5006998;28;20201;-78
2023/03/26 03:43:31;;;;;;;4.18;1.08;;;25.80;99.90;;;;;;5009754;28;21086;-79
2023/03/26 03:46:02;;;;;;;6.88;1.05;;;25.90;99.90;;;;;;5008532;28;20197;-77
2023/03/26 03:48:37;;;;;;;3.20;0.80;;;25.90;99.90;;;;;;5007953;28;20561;-76
2023/03/26 03:51:09;;;;;;;3.30;0.80;;;25.90;99.90;;;;;;5008585;28;20667;-78
2023/03/26 03:53:40;;;;;;;3.53;0.90;;;25.90;99.90;;;;;;5009287;28;20680;-78
2023/03/26 03:56:13;;;;;;;5.97;0.90;;;25.90;99.90;;;;;;5010452;28;20307;-78
2023/03/26 03:58:46;;;;;;;2.40;0.65;;;26.00;99.90;;;;;;5018026;28;20221;-77
2023/03/26 04:01:21;;;;;;;2.30;0.60;;;25.90;99.90;;;;;;5016254;28;20193;-76
2023/03/26 04:03:52;;;;;;;4.18;0.90;;;25.80;99.90;;;;;;5007419;28;20208;-78
2023/03/26 04:06:24;;;;;;;3.42;0.93;;;25.90;99.90;;;;;;5006728;28;20264;-78
2023/03/26 04:08:55;;;;;;;3.67;0.73;;;25.90;99.90;;;;;;5006330;28;20202;-78
2023/03/26 04:11:26;;;;;;;5.65;0.80;;;26.10;99.90;;;;;;5011859;28;20200;-77
2023/03/26 04:14:02;;;;;;;3.70;0.90;;;26.10;99.90;;;;;;5021884;28;21225;-79
2023/03/26 04:16:33;;;;;;;3.55;0.90;;;26.00;99.90;;;;;;5007477;28;20288;-78
2023/03/26 04:19:07;;;;;;;4.65;1.33;;;25.90;99.90;;;;;;5010445;28;20189;-79
2023/03/26 04:21:38;;;;;;;5.15;0.93;;;25.90;99.90;;;;;;5010982;28;23002;-78
2023/03/26 04:24:11;;;;;;;4.30;0.90;;;25.80;99.90;;;;;;5005190;28;20205;-77
2023/03/26 04:26:42;;;;;;;3.33;0.95;;;25.80;99.90;;;;;;5006041;28;20229;-79
2023/03/26 04:29:16;;;;;;;3.78;0.93;;;25.70;99.90;;;;;;5005038;28;20723;-77
2023/03/26 04:31:49;;;;;;;4.97;0.90;;;25.70;99.90;;;;;;5006427;28;20204;-78
2023/03/26 04:34:25;;;;;;;5.30;0.90;;;25.70;99.90;;;;;;5011546;28;20615;-78
2023/03/26 04:36:56;;;;;;;4.30;0.82;;;25.60;99.90;;;;;;5006514;28;20278;-79
2023/03/26 04:39:28;;;;;;;3.15;0.90;;;25.50;99.90;;;;;;5004656;28;20204;-78
2023/03/26 04:41:59;;;;;;;4.45;1.00;;;25.50;99.90;;;;;;5005790;28;20733;-78
2023/03/26 04:44:33;;;;;;;3.80;1.02;;;25.40;99.90;;;;;;5005839;28;20209;-78
2023/03/26 04:47:07;;;;;;;3.05;0.70;;;25.40;99.90;;;;;;5005315;28;20227;-79
2023/03/26 04:49:38;;;;;;;3.03;0.60;;;25.30;99.90;;;;;;5006630;28;20204;-78
2023/03/26 04:52:12;;;;;;;3.83;0.75;;;25.30;99.90;;;;;;5006717;28;20228;-78
2023/03/26 04:54:44;;;;;;;4.72;0.63;;;25.30;99.90;;;;;;5006890;28;20205;-78
2023/03/26 04:57:21;;;;;;;2.97;0.73;;;25.20;99.90;;;;;;5009760;28;20204;-78
2023/03/26 04:59:55;;;;;;;5.97;1.10;;;25.20;99.90;;;;;;5011314;28;20197;-78
2023/03/26 05:02:26;;;;;;;4.32;0.82;;;25.00;99.90;;;;;;5015396;28;20548;-78
2023/03/26 05:04:58;;;;;;;5.22;1.10;;;25.00;99.90;;;;;;5005601;28;20197;-79
2023/03/26 05:07:29;;;;;;;4.88;0.90;;;25.00;99.90;;;;;;5010062;28;20273;-78
2023/03/26 05:10:02;;;;;;;5.70;1.10;;;25.00;99.90;;;;;;5006813;28;20201;-79
2023/03/26 05:12:33;;;;;;;3.60;0.88;;;25.00;99.90;;;;;;5005828;28;20660;-78
2023/03/26 05:15:06;;;;;;;4.90;0.73;;;25.00;99.90;;;;;;5006156;28;20197;-79
2023/03/26 05:17:41;;;;;;;4.57;1.00;;;25.00;99.90;;;;;;5007386;28;20202;-77
2023/03/26 05:20:19;;;;;;;5.25;1.00;;;25.00;99.90;;;;;;5016595;28;20706;-79
2023/03/26 05:22:52;;;;;;;5.78;1.00;;;25.00;99.90;;;;;;5008242;28;20207;-78
2023/03/26 05:25:24;;;;;;;5.90;1.00;;;25.00;99.90;;;;;;5005781;28;20645;-79
2023/03/26 05:27:55;;;;;;;5.07;1.00;;;25.00;99.90;;;;;;5011380;28;20221;-80
2023/03/26 05:30:28;;;;;;;3.60;0.95;;;25.10;99.90;;;;;;5007002;28;20213;-78
2023/03/26 05:33:03;;;;;;;6.20;1.13;;;25.10;99.90;;;;;;5008752;28;20695;-77
2023/03/26 05:35:34;;;;;;;4.32;0.90;;;25.20;99.90;;;;;;5005941;28;20566;-79
2023/03/26 05:38:05;;;;;;;2.42;0.80;;;25.10;99.90;;;;;;5013963;28;20220;-78
2023/03/26 05:40:36;;;;;;;6.57;1.00;;;25.10;99.90;;;;;;5010936;28;20205;-78
2023/03/26 05:43:07;;;;;;;5.13;1.13;;;25.10;99.90;;;;;;5004845;28;20206;-79
2023/03/26 05:45:40;;;;;;;4.18;0.82;;;25.20;99.90;;;;;;5004194;28;20205;-78
2023/03/26 05:48:11;;;;;;;2.22;0.60;;;25.20;99.90;;;;;;5005844;28;20226;-78
2023/03/26 05:50:43;;;;;;;4.03;0.88;;;25.30;99.90;;;;;;5009332;28;20563;-79
2023/03/26 05:53:14;;;;;;;3.58;0.90;;;25.30;99.90;;;;;;5010971;28;20202;-79
2023/03/26 05:55:54;;;;;;;6.10;1.27;;;25.40;99.90;;;;;;5009752;28;20279;-78
2023/03/26 05:58:26;;;;;;;4.85;0.80;;;25.50;99.90;;;;;;5009647;28;20208;-77
2023/03/26 06:01:04;;;;;;;5.72;1.17;;;25.60;99.90;;;;;;5019401;28;20198;-79
2023/03/26 06:03:36;;;;;;;3.60;0.95;;;25.80;99.90;;;;;;5020849;28;20193;-79
2023/03/26 06:06:14;;;;;;;4.13;0.93;;;25.90;99.90;;;;;;5011637;28;20216;-79
2023/03/26 06:08:47;;;;;;;3.20;0.80;;;26.00;99.90;;;;;;5016597;28;20228;-79
2023/03/26 06:11:19;;;;;;;3.83;1.10;;;25.90;99.90;;;;;;5029300;28;20245;-77
2023/03/26 06:13:51;;;;;;;4.30;0.80;;;25.90;99.90;;;;;;5021863;28;20201;-78
2023/03/26 06:16:25;;;;;;;5.80;1.00;;;25.90;99.90;;;;;;5033486;28;20201;-80
2023/03/26 06:18:56;;;;;;;2.95;0.85;;;25.80;99.90;;;;;;5031994;28;20678;-78
2023/03/26 06:21:27;;;;;;;3.78;0.90;;;25.80;99.90;;;;;;5042371;28;20197;-77
2023/03/26 06:23:59;;;;;;;6.22;1.13;;;25.70;99.90;;;;;;5026394;28;20635;-78
2023/03/26 06:26:30;;;;;;;5.03;1.15;;;25.60;99.90;;;;;;5030989;28;20571;-77
2023/03/26 06:29:01;;;;;;;3.47;1.02;;;25.50;99.90;;;;;;5027489;28;20225;-77
2023/03/26 06:31:34;;;;;;;3.30;1.10;;;25.50;99.90;;;;;;5026736;28;20196;-78
2023/03/26 06:34:07;;;;;;;3.47;1.00;;;25.50;99.90;;;;;;5025248;28;20205;-77
2023/03/26 06:36:38;;;;;;;5.10;1.08;;;25.40;99.90;;;;;;5026133;28;20185;-78
2023/03/26 06:39:12;;;;;;;4.40;1.08;;;25.40;99.90;;;;;;5028588;28;20212;-77
2023/03/26 06:41:43;;;;;;;4.63;1.08;;;25.30;99.90;;;;;;5025006;28;20205;-77
2023/03/26 06:44:15;;;;;;;3.88;1.05;;;25.20;99.90;;;;;;5024521;28;20213;-78
2023/03/26 06:46:48;;;;;;;5.50;1.13;;;25.20;99.90;;;;;;5027890;28;20190;-77
2023/03/26 06:49:19;;;;;;;4.13;1.13;;;25.20;99.90;;;;;;5027846;28;20261;-77
2023/03/26 06:51:50;;;;;;;6.75;1.15;;;25.10;99.90;;;;;;5028543;28;20518;-77
2023/03/26 06:54:21;;;;;;;4.72;1.00;;;25.10;99.90;;;;;;5030512;28;20205;-77
2023/03/26 06:56:53;;;;;;;5.25;1.10;;;25.00;99.90;;;;;;5025829;28;20557;-80
2023/03/26 06:59:24;;;;;;;4.18;1.00;;;24.90;99.90;;;;;;5032691;28;20228;-78
2023/03/26 07:02:01;;;;;;;5.78;1.02;;;25.00;99.90;;;;;;5037621;28;20189;-77
2023/03/26 07:04:32;;;;;;;6.32;1.10;;;24.90;99.90;;;;;;5028218;28;20207;-77
2023/03/26 07:07:03;;;;;;;5.10;1.40;;;24.90;99.90;;;;;;5033181;28;20241;-77
2023/03/26 07:09:37;;;;;;;3.95;1.20;;;25.10;99.90;;;;;;5030483;28;20212;-78
2023/03/26 07:12:09;;;;;;;4.45;0.95;;;25.10;99.90;;;;;;5032747;28;20201;-77
2023/03/26 07:14:40;;;;;;;3.78;1.33;;;25.20;99.90;;;;;;5035246;28;20194;-77
2023/03/26 07:17:13;;;;;;;7.90;1.33;;;25.30;99.90;;;;;;5031720;28;20664;-78
2023/03/26 07:19:44;;;;;;;6.15;1.30;;;25.30;99.90;;;;;;5032662;28;20197;-78
2023/03/26 07:22:21;;;;;;;4.43;1.08;;;25.20;99.90;;;;;;5032798;28;20591;-78
2023/03/26 07:24:53;;;;;;;6.10;1.23;;;25.10;99.90;;;;;;5027646;28;20197;-79
2023/03/26 07:27:38;;;;;;;5.60;1.80;;;25.10;99.90;;;;;;5035837;28;20224;-79
2023/03/26 07:30:14;;;;;;;3.85;1.45;;;25.10;99.90;;;;;;5035248;28;20217;-78
2023/03/26 07:32:51;;;;;;;4.70;1.40;;;25.00;99.90;;;;;;5034401;28;20283;-79
2023/03/26 07:35:27;;;;;;;7.22;1.60;;;25.00;99.90;;;;;;5034142;28;20197;-76
2023/03/26 07:38:15;;;;;;;4.97;1.42;;;24.90;99.90;;;;;;5037816;28;20203;-79
2023/03/26 07:40:54;;;;;;;2.53;0.90;;;24.90;99.90;;;;;;5042503;28;20201;-79
2023/03/26 07:43:37;;;;;;;4.82;1.20;;;24.80;99.90;;;;;;5040729;28;20225;-79
2023/03/26 07:46:14;;;;;;;3.08;1.10;;;24.70;99.90;;;;;;5045011;28;20297;-77
2023/03/26 07:48:48;;;;;;;4.20;1.20;;;24.70;99.90;;;;;;5032985;28;20248;-78
2023/03/26 07:51:20;;;;;;;4.68;1.30;;;24.70;99.90;;;;;;5036317;28;20223;-79
2023/03/26 07:53:52;;;;;;;4.00;1.10;;;24.60;99.90;;;;;;5017660;28;20202;-78
2023/03/26 07:56:29;;;;;;;5.53;1.23;;;24.60;99.90;;;;;;5028028;28;20201;-79
2023/03/26 07:59:17;;;;;;;6.28;1.17;;;24.50;99.90;;;;;;5035794;28;20205;-79
2023/03/26 08:02:15;;;;;;;6.68;1.35;;;24.50;99.90;;;;;;5031505;28;20193;-79
2023/03/26 08:05:09;;;;;;;5.88;1.27;;;24.40;99.90;;;;;;5035906;28;20194;-79
2023/03/26 08:07:54;;;;;;;4.60;1.33;;;24.30;99.90;;;;;;5030125;28;20286;-79
2023/03/26 08:10:29;;;;;;;6.57;1.15;;;24.30;99.90;;;;;;5024688;28;20212;-78
2023/03/26 08:13:09;;;;;;;6.07;1.20;;;24.20;99.90;;;;;;5019071;28;20199;-78
2023/03/26 08:15:48;;;;;;;5.18;1.10;;;24.20;99.90;;;;;;5030979;28;20730;-80
2023/03/26 08:18:37;;;;;;;6.50;1.50;;;24.20;99.90;;;;;;5039270;28;21903;-79
2023/03/26 08:21:30;;;;;;;7.68;1.23;;;24.20;99.90;;;;;;5046011;28;20205;-80
2023/03/26 08:24:08;;;;;;;7.47;1.27;;;24.20;99.90;;;;;;5042735;28;20204;-78
2023/03/26 08:26:47;;;;;;;6.43;1.33;;;24.20;99.90;;;;;;5029022;28;20203;-79
2023/03/26 08:29:29;;;;;;;7.28;1.40;;;24.20;99.90;;;;;;5042119;28;20225;-79
2023/03/26 08:32:02;;;;;;;5.53;1.45;;;24.20;99.90;;;;;;5044906;28;20310;-80
2023/03/26 08:34:34;;;;;;;7.97;1.50;;;24.20;99.90;;;;;;5039294;28;20193;-79
2023/03/26 08:37:45;;;;;;;6.18;1.50;;;24.10;99.90;;;;;;5044591;28;20257;-79
2023/03/26 08:40:57;;;;;;;6.70;1.30;;;24.20;99.90;;;;;;5043954;28;20209;-79
2023/03/26 08:43:56;;;;;;;4.38;1.30;;;24.20;99.90;;;;;;5042072;28;20706;-80
2023/03/26 08:46:53;;;;;;;9.35;1.65;;;24.10;99.90;;;;;;5034180;28;20201;-79
2023/03/26 08:49:54;;;;;;;8.80;1.50;;;24.10;99.90;;;;;;5038094;28;20249;-79
2023/03/26 08:53:06;;;;;;;5.30;1.27;;;24.10;99.90;;;;;;5038668;28;20202;-78
2023/03/26 08:55:52;;;;;;;9.30;2.17;;;24.10;99.90;;;;;;5004883;28;20201;-79
2023/03/26 08:58:54;;;;;;;6.40;1.45;;;24.10;99.90;;;;;;5036236;28;20201;-78
2023/03/26 09:02:03;;;;;;;6.72;1.55;;;24.10;99.90;;;;;;5039361;28;20207;-80
2023/03/26 09:05:29;;;;;;;8.05;1.70;;;24.10;99.90;;;;;;5043735;28;20208;-78
2023/03/26 09:08:51;;;;;;;4.95;1.20;;;24.00;99.90;;;;;;5043816;28;20228;-78
2023/03/26 09:12:09;;;;;;;7.32;1.58;;;24.00;99.90;;;;;;4998740;28;20227;-79
2023/03/26 09:15:29;;;;;;;6.22;1.40;;;24.00;99.90;;;;;;5001634;28;20221;-78
2023/03/26 09:18:38;;;;;;;6.28;1.38;;;23.90;99.90;;;;;;5027156;28;20228;-80
2023/03/26 09:22:09;;;;;;;6.65;1.10;;;23.80;99.90;;;;;;4993595;28;20787;-79
2023/03/26 09:25:18;;;;;;;6.25;1.63;;;23.80;99.90;;;;;;4954465;28;20204;-78
2023/03/26 09:28:18;;;;;;;8.85;1.48;;;23.70;99.90;;;;;;4957139;28;20200;-77
2023/03/26 09:31:30;;;;;;;6.32;1.40;;;23.70;99.90;;;;;;5037739;28;20197;-77
2023/03/26 09:34:29;;;;;;;12.45;2.00;;;23.70;99.90;;;;;;5039634;28;20228;-79
2023/03/26 09:37:19;;;;;;;6.40;1.55;;;23.60;99.90;;;;;;5038237;28;20664;-78
2023/03/26 09:40:16;;;;;;;5.90;1.42;;;23.50;99.90;;;;;;5037051;28;20224;-81
2023/03/26 09:43:02;;;;;;;5.60;1.40;;;23.50;99.90;;;;;;5021388;28;20198;-79
2023/03/26 09:45:55;;;;;;;6.80;1.63;;;23.50;99.90;;;;;;5041651;28;20197;-79
2023/03/26 09:49:07;;;;;;;5.30;1.20;;;23.60;99.90;;;;;;5039302;28;20587;-79
2023/03/26 09:52:03;;;;;;;5.70;1.30;;;23.60;99.90;;;;;;5027029;28;20224;-78
2023/03/26 09:55:21;;;;;;;5.68;1.33;;;23.50;99.90;;;;;;5038730;28;20317;-78
2023/03/26 09:58:18;;;;;;;8.13;1.40;;;23.50;99.90;;;;;;5030830;28;20201;-77
2023/03/26 10:00:59;;;;;;;7.18;1.30;;;23.60;99.90;;;;;;5034138;28;20227;-80
2023/03/26 10:03:54;;;;;;;9.13;1.73;;;23.50;99.90;;;;;;5045033;28;20197;-78
2023/03/26 10:06:51;;;;;;;5.88;1.23;;;23.50;99.90;;;;;;5021936;28;20202;-78
2023/03/26 10:09:49;;;;;;;6.25;1.40;;;23.60;99.90;;;;;;5038379;28;20209;-77
2023/03/26 10:12:41;;;;;;;7.13;1.30;;;23.50;99.90;;;;;;5034103;28;20767;-79
2023/03/26 10:15:33;;;;;;;2.63;1.15;;;23.50;99.90;;;;;;5036124;28;20255;-79
2023/03/26 10:18:19;;;;;;;4.72;1.08;;;23.50;99.90;;;;;;5032280;28;20178;-79
2023/03/26 10:21:04;;;;;;;4.30;1.13;;;23.40;99.90;;;;;;5037069;28;20199;-79
2023/03/26 10:23:48;;;;;;;5.22;1.25;;;23.40;99.90;;;;;;5035769;28;20251;-77
2023/03/26 10:26:44;;;;;;;8.52;1.45;;;23.40;99.90;;;;;;5039761;28;20181;-78
2023/03/26 10:29:31;;;;;;;7.28;1.20;;;23.40;99.90;;;;;;5032562;28;20225;-78
2023/03/26 10:32:11;;;;;;;6.05;1.20;;;23.40;99.90;;;;;;5026493;28;20205;-77
2023/03/26 10:35:00;;;;;;;6.68;1.27;;;23.40;99.90;;;;;;5031938;28;20634;-77
2023/03/26 10:37:40;;;;;;;6.68;1.33;;;23.40;99.90;;;;;;5030507;28;20680;-78
2023/03/26 10:40:34;;;;;;;7.10;1.30;;;23.40;99.90;;;;;;5028644;28;20209;-77
2023/03/26 10:43:44;;;;;;;5.68;1.33;;;23.40;99.90;;;;;;5025720;28;20201;-78
2023/03/26 10:46:41;;;;;;;4.28;1.05;;;23.40;99.90;;;;;;5023785;28;20193;-77
2023/03/26 10:49:48;;;;;;;7.82;1.58;;;23.30;99.90;;;;;;5028349;28;20225;-79
2023/03/26 10:52:23;;;;;;;7.25;1.27;;;23.30;99.90;;;;;;5024127;28;20200;-80
2023/03/26 10:54:59;;;;;;;9.27;1.38;;;23.30;99.90;;;;;;5031271;28;20193;-79
2023/03/26 10:57:41;;;;;;;6.40;1.40;;;23.20;99.90;;;;;;5027375;28;20197;-78
2023/03/26 11:00:24;;;;;;;8.00;1.40;;;23.20;99.90;;;;;;5034172;28;20231;-79
2023/03/26 11:03:27;;;;;;;6.90;1.40;;;23.10;99.90;;;;;;5032434;28;20290;-78
2023/03/26 11:06:08;;;;;;;7.45;1.13;;;23.10;99.90;;;;;;4995680;28;20200;-78
2023/03/26 11:08:45;;;;;;;9.05;1.30;;;23.10;99.90;;;;;;4986438;28;20237;-78
2023/03/26 11:11:26;;;;;;;6.50;1.30;;;23.20;99.90;;;;;;4987353;28;20212;-78
2023/03/26 11:14:05;;;;;;;6.65;1.13;;;23.20;99.90;;;;;;4987683;28;20203;-78
2023/03/26 11:16:52;;;;;;;6.72;1.30;;;23.20;99.90;;;;;;4981777;28;20565;-77
2023/03/26 11:19:30;;;;;;;6.53;1.08;;;23.20;99.90;;;;;;4985181;28;20202;-77
2023/03/26 11:22:13;;;;;;;7.50;1.20;;;23.20;99.90;;;;;;4989634;28;20205;-79
2023/03/26 11:25:04;;;;;;;8.93;1.25;;;23.30;99.90;;;;;;4989273;28;20573;-78
2023/03/26 11:27:47;;;;;;;7.18;1.30;;;23.20;99.90;;;;;;4992040;28;20191;-78
2023/03/26 11:30:32;;;;;;;7.47;1.45;;;23.30;99.90;;;;;;4990894;28;20222;-77
2023/03/26 11:33:05;;;;;;;6.50;1.23;;;23.30;99.90;;;;;;4992817;28;20202;-77
2023/03/26 11:35:45;;;;;;;7.38;1.38;;;23.30;99.90;;;;;;4993268;28;20210;-78
2023/03/26 11:38:25;;;;;;;7.55;1.27;;;23.30;99.90;;;;;;4992984;28;20194;-78
2023/03/26 11:40:58;;;;;;;6.20;1.42;;;23.30;99.90;;;;;;4991326;28;20287;-78
2023/03/26 11:43:34;;;;;;;6.57;1.20;;;23.30;99.90;;;;;;4992674;28;20224;-77
2023/03/26 11:46:08;;;;;;;5.50;1.40;;;23.30;99.90;;;;;;4990961;28;20201;-78
2023/03/26 11:48:42;;;;;;;8.18;1.23;;;23.30;99.90;;;;;;4988872;28;20250;-79
2023/03/26 11:51:23;;;;;;;10.30;1.45;;;23.30;99.90;;;;;;4996664;28;20424;-80
2023/03/26 11:53:54;;;;;;;6.60;1.33;;;23.30;99.90;;;;;;4992541;28;20207;-79
2023/03/26 11:56:31;;;;;;;4.70;1.27;;;23.30;99.90;;;;;;4988522;28;20199;-79
2023/03/26 11:59:06;;;;;;;10.90;1.70;;;23.30;99.90;;;;;;4994345;28;20240;-79
2023/03/26 12:01:51;;;;;;;6.90;1.50;;;23.30;99.90;;;;;;5000076;28;20276;-78
2023/03/26 12:04:32;;;;;;;6.93;1.35;;;23.30;99.90;;;;;;5001314;28;20226;-78
2023/03/26 12:07:17;;;;;;;8.85;1.35;;;23.20;99.90;;;;;;5001784;28;20225;-79
2023/03/26 12:09:58;;;;;;;6.85;1.50;;;23.20;99.90;;;;;;5023670;28;20257;-79
2023/03/26 12:12:31;;;;;;;9.13;1.45;;;23.20;99.90;;;;;;5029848;28;20217;-78
2023/03/26 12:15:03;;;;;;;6.63;1.40;;;23.20;99.90;;;;;;5023709;28;20205;-78
2023/03/26 12:17:36;;;;;;;7.40;1.48;;;23.20;99.90;;;;;;5024021;28;20704;-80
2023/03/26 12:20:37;;;;;;;8.73;1.50;;;23.20;99.90;;;;;;5028807;28;20204;-81
2023/03/26 12:23:37;;;;;;;8.57;1.42;;;23.20;99.90;;;;;;5033525;28;20283;-78
2023/03/26 12:26:18;;;;;;;8.68;1.52;;;23.10;99.90;;;;;;5025662;28;20201;-79
2023/03/26 12:28:50;;;;;;;7.38;1.20;;;23.10;99.90;;;;;;5027442;28;21021;-79
2023/03/26 12:31:25;;;;;;;7.72;1.48;;;23.20;99.90;;;;;;5027759;28;20688;-79
2023/03/26 12:34:33;;;;;;;9.55;1.58;;;23.10;99.90;;;;;;5028049;28;20730;-81
2023/03/26 12:37:20;;;;;;;;;;;;;;;;;;;;;
2023/03/26 12:40:11;;;;;;;9.23;1.45;;;23.20;99.90;;;;;;5032654;28;20193;-79
2023/03/26 12:42:43;;;;;;;7.57;1.30;;;23.10;99.90;;;;;;5029253;28;20247;-79
2023/03/26 12:45:16;;;;;;;12.00;1.60;;;23.10;99.90;;;;;;5026327;28;20200;-80
2023/03/26 12:47:48;;;;;;;11.68;1.55;;;23.10;99.90;;;;;;5029061;28;20197;-79
2023/03/26 12:50:19;;;;;;;5.45;1.13;;;23.10;99.90;;;;;;5028988;28;20603;-81
2023/03/26 12:53:08;;;;;;;5.65;1.30;;;23.10;99.90;;;;;;5027718;28;20197;-82
2023/03/26 12:55:56;;;;;;;9.57;1.55;;;23.10;99.90;;;;;;5028477;28;20209;-77
2023/03/26 12:59:00;;;;;;;6.45;1.30;;;23.20;99.90;;;;;;5022952;28;20205;-81
2023/03/26 13:01:44;;;;;;;7.20;1.30;;;23.20;99.90;;;;;;5009510;28;20287;-78
2023/03/26 13:04:42;;;;;;;7.15;1.10;;;23.20;99.90;;;;;;5030617;28;20307;-80
2023/03/26 13:07:22;;;;;;;7.72;1.42;;;23.20;99.90;;;;;;5026780;28;20244;-79
2023/03/26 13:10:28;;;;;;;10.10;1.85;;;23.20;99.90;;;;;;5023108;28;20225;-80
2023/03/26 13:13:17;;;;;;;8.15;1.50;;;23.20;99.90;;;;;;5023478;28;20780;-82
2023/03/26 13:15:53;;;;;;;7.70;1.30;;;23.20;99.90;;;;;;5027128;28;20197;-79
2023/03/26 13:18:46;;;;;;;6.45;1.35;;;23.10;99.90;;;;;;5027393;28;20224;-79
2023/03/26 13:21:28;;;;;;;7.95;1.48;;;23.10;99.90;;;;;;5027770;28;20193;-78
2023/03/26 13:24:06;;;;;;;9.75;1.60;;;23.10;99.90;;;;;;5029284;28;20235;-80
2023/03/26 13:26:49;;;;;;;7.97;1.20;;;23.00;99.90;;;;;;5051352;22;20306;-80
2023/03/26 13:29:30;;;;;;;6.25;1.17;;;23.10;99.90;;;;;;5061059;28;20566;-78
2023/03/26 13:32:10;;;;;;;9.65;1.42;;;23.10;99.90;;;;;;5054261;28;20192;-78
2023/03/26 13:34:57;;;;;;;6.78;1.13;;;23.10;99.90;;;;;;5045610;28;20200;-79
2023/03/26 13:37:34;;;;;;;8.85;1.60;;;23.10;99.90;;;;;;5048533;28;20254;-79
2023/03/26 13:40:19;;;;;;;6.38;1.30;;;23.10;99.90;;;;;;5051800;28;20207;-81
2023/03/26 13:42:59;;;;;;;4.72;1.13;;;23.10;99.90;;;;;;5050162;28;20262;-79
2023/03/26 13:45:53;;;;;;;5.70;1.25;;;23.00;99.90;;;;;;5055308;28;20207;-79
2023/03/26 13:48:28;;;;;;;4.65;1.13;;;23.10;99.90;;;;;;5047070;28;20679;-79
2023/03/26 13:51:11;;;;;;;6.28;1.23;;;23.00;99.90;;;;;;5045734;28;20219;-79
2023/03/26 13:53:46;;;;;;;6.53;1.10;;;23.10;99.90;;;;;;5049608;28;20723;-78